Text Box: All records at near 07:00 local time
Kleivo 1 weather for Jul 2011
Updated 21.08.2011 20:22:23 Month no. 56
Obs.
Da.
Temp. Dew Point Precip. Wind
Speed
Wind gusts Cloud cover Press. Humidity Wind dir. Sunny OPT
01.07.2011 11,3 9,1 0,0 9,7 14,5 0 996,3 86,0 270,0   60,0 %
02.07.2011 10,9 8,8 3,6 0,0 0,0 4 994,9 87,0     72,5 %
03.07.2011 12,8 10,7 9,9 0,0 0,0 0 991,9 87,0     60,0 %
04.07.2011 11,4 9,3 0,0 0,0 3,2 0 995,9 87,0     65,0 %
05.07.2011 12,5 10,4 0,5   0,0 0 996,3 0,0      
06.07.2011 12,9 10,6 0,0 0,0 0,0 1 992,2 86,0     70,0 %
07.07.2011 13,5 11,2 3,0 1,6 1,6 9 988,1 86,0 135,0   87,5 %
08.07.2011 15,2 11,2 0,0 8,0 9,7 8 989,5 77,0 90,0   85,0 %
09.07.2011 12,6 10,3 4,1 4,8 8,0 4 989,2 86,0 112,5   72,5 %
10.07.2011 12,2 9,8 2,0 0,0 0,0 4 990,9 85,0     75,0 %
11.07.2011 12,4 10,1 1,0 0,0 1,6 4 995,9 86,0     75,0 %
12.07.2011 10,2 7,9 1,5 1,6 0,0 4 999,7 86,0 45,0   75,0 %
13.07.2011 7,9 5,7 0,0 0,0 0,0 4 999,0 86,0     72,5 %
14.07.2011 9,1 6,8 0,0 0,0 0,0 4 999,0 86,0     72,5 %
15.07.2011 10,8 8,4 0,0 3,2 3,2 8 992,2 85,0 270,0   85,0 %
16.07.2011 12,3 9,7 0,0 3,2 3,2 1 986,8 84,0 135,0   67,5 %
17.07.2011 17,3 12,0 0,5 12,9 16,1 1 974,3 71,0 337,5   65,0 %
18.07.2011 14,4 9,8 0,0 3,2 4,8 1 974,3 74,0 112,5   70,0 %
19.07.2011 12,8 10,2 10,2 8,0 8,0 1 977,7 84,0 135,0   57,5 %
20.07.2011 12,8 10,4 0,0 3,2 4,8 1 984,1 85,0 180,0   70,0 %
21.07.2011 11,1 8,7 0,0 0,0 1,6 1 991,9 85,0     67,5 %
22.07.2011 11,2 8,8 0,0 0,0 1,6 0 989,2 85,0     65,0 %
23.07.2011 13,6 11,1 0,0 0,0 0,0 0 980,7 85,0     67,5 %
24.07.2011 16,3 13,6 0,0 0,0 0,0 0 976,6 84,0     70,0 %
25.07.2011 13,0 10,6 0,0 0,0 0,0 0 983,4 85,0     67,5 %
26.07.2011 12,4 9,8 0,0 0,0 0,0 1 991,2 84,0     67,5 %
27.07.2011 12,4 9,8 0,0 1,6 1,6 1 1000,0 84,0 247,5   67,5 %
28.07.2011 13,2 10,6 0,0 0,0 0,0 1 1000,7 84,0     70,0 %
29.07.2011 11,4 8,8 0,0 1,6 3,2 1 999,0 84,0 22,5   67,5 %
30.07.2011 11,8 9,2 0,0 3,2 3,2 1 995,9 84,0 0,0   67,5 %
31.07.2011 11,8 9,2 0,0 0,0 0,0 1 994,2 84,0     67,5 %
Avrg/Sum 12,4 9,8 36,3 2,2 2,9 2,1 990,7 81,4 149,5   70,1 %